Time;durP1;ratioP1;P1;durP2;ratioP2;P2;SDS_P1;SDS_P2;PMS_P1;PMS_P2;Temp;Humidity;BMP_temperature;BMP_pressure;BME280_temperature;BME280_humidity;BME280_pressure;Samples;Min_cycle;Max_cycle;Signal;HPM_P1;HPM_P2
2022/06/20 00:00:45;;;;;;;6.70;1.90;;;14.40;99.90;;;;;;5100527;28;20092;-71
2022/06/20 00:03:21;;;;;;;8.93;2.20;;;14.40;99.90;;;;;;5100071;28;20039;-71
2022/06/20 00:05:46;;;;;;;10.35;2.22;;;14.40;99.90;;;;;;5097040;28;20118;-71
2022/06/20 00:08:12;;;;;;;6.88;2.10;;;14.40;99.90;;;;;;5099017;28;20131;-71
2022/06/20 00:10:41;;;;;;;9.27;2.10;;;14.40;99.90;;;;;;5100507;28;20082;-71
2022/06/20 00:13:16;;;;;;;10.10;2.33;;;14.30;99.90;;;;;;5099700;28;20082;-71
2022/06/20 00:15:42;;;;;;;7.97;2.10;;;14.30;99.90;;;;;;5101160;28;20860;-71
2022/06/20 00:18:09;;;;;;;9.45;2.25;;;14.40;99.90;;;;;;5081001;28;20048;-71
2022/06/20 00:20:35;;;;;;;8.30;2.15;;;14.30;99.90;;;;;;5100480;28;20042;-71
2022/06/20 00:23:01;;;;;;;10.65;2.35;;;14.30;99.90;;;;;;5100897;28;20040;-71
2022/06/20 00:25:27;;;;;;;9.68;2.33;;;14.20;99.90;;;;;;5082504;28;20066;-71
2022/06/20 00:27:56;;;;;;;7.82;2.42;;;14.20;99.90;;;;;;5075875;28;20127;-71
2022/06/20 00:30:23;;;;;;;5.75;2.20;;;14.20;99.90;;;;;;5078879;28;21010;-71
2022/06/20 00:32:49;;;;;;;12.32;2.30;;;14.20;99.90;;;;;;5097464;28;20089;-71
2022/06/20 00:35:15;;;;;;;9.10;2.47;;;14.20;99.90;;;;;;5077932;28;20050;-71
2022/06/20 00:37:41;;;;;;;6.32;2.35;;;14.10;99.90;;;;;;5101174;28;20320;-71
2022/06/20 00:40:39;;;;;;;10.32;2.50;;;14.00;99.90;;;;;;5072669;28;20036;-71
2022/06/20 00:43:07;;;;;;;9.90;2.10;;;14.10;99.90;;;;;;5101440;28;21752;-71
2022/06/20 00:45:39;;;;;;;7.90;2.17;;;14.00;99.90;;;;;;5080196;28;20821;-71
2022/06/20 00:48:14;;;;;;;8.40;2.38;;;14.00;99.90;;;;;;5086363;28;20131;-71
2022/06/20 00:50:40;;;;;;;8.77;2.20;;;14.00;99.90;;;;;;5079610;28;20057;-71
2022/06/20 00:53:21;;;;;;;7.68;2.30;;;14.00;99.90;;;;;;5100073;28;20397;-71
2022/06/20 00:56:04;;;;;;;8.38;2.15;;;14.00;99.90;;;;;;5096049;28;20032;-71
2022/06/20 00:58:35;;;;;;;6.43;2.38;;;13.90;99.90;;;;;;5098957;28;20071;-71
2022/06/20 01:01:01;;;;;;;6.30;1.90;;;13.90;99.90;;;;;;5096045;28;20374;-71
2022/06/20 01:03:33;;;;;;;7.10;2.42;;;13.90;99.90;;;;;;5095556;28;20103;-70
2022/06/20 01:06:24;;;;;;;7.57;2.15;;;13.90;99.90;;;;;;5097510;28;20034;-71
2022/06/20 01:08:56;;;;;;;7.72;2.38;;;13.90;99.90;;;;;;5087022;28;20050;-71
2022/06/20 01:11:26;;;;;;;7.20;2.00;;;13.90;99.90;;;;;;5077149;28;20050;-71
2022/06/20 01:13:53;;;;;;;9.93;2.55;;;13.90;99.90;;;;;;5099588;28;20071;-71
2022/06/20 01:16:27;;;;;;;8.98;2.35;;;13.90;99.90;;;;;;5098781;28;20044;-71
2022/06/20 01:18:54;;;;;;;12.48;2.65;;;13.80;99.90;;;;;;5095706;28;20071;-71
2022/06/20 01:21:24;;;;;;;8.57;2.20;;;13.80;99.90;;;;;;5076914;28;20047;-71
2022/06/20 01:24:20;;;;;;;10.35;2.58;;;13.80;99.90;;;;;;5097695;28;20581;-71
2022/06/20 01:27:14;;;;;;;8.35;2.40;;;13.80;99.90;;;;;;5097076;28;20044;-71
2022/06/20 01:29:40;;;;;;;8.23;2.45;;;13.80;99.90;;;;;;5096803;28;20069;-71
2022/06/20 01:32:06;;;;;;;11.43;2.72;;;13.80;99.90;;;;;;5098794;28;20048;-71
2022/06/20 01:34:33;;;;;;;7.40;2.60;;;13.80;99.90;;;;;;5096676;28;20040;-71
2022/06/20 01:37:23;;;;;;;7.28;2.72;;;13.80;99.90;;;;;;5095831;28;20127;-71
2022/06/20 01:39:50;;;;;;;9.73;2.63;;;13.80;99.90;;;;;;5098859;28;20048;-71
2022/06/20 01:42:19;;;;;;;7.50;2.13;;;13.80;99.90;;;;;;5098544;28;20128;-71
2022/06/20 01:44:56;;;;;;;7.95;2.40;;;13.80;99.90;;;;;;5098693;28;20135;-71
2022/06/20 01:47:25;;;;;;;9.50;2.53;;;13.80;99.90;;;;;;5070811;28;20055;-71
2022/06/20 01:49:55;;;;;;;8.40;2.67;;;13.80;99.90;;;;;;5094254;28;20044;-71
2022/06/20 01:52:38;;;;;;;10.00;2.67;;;13.80;99.90;;;;;;5093008;28;20079;-71
2022/06/20 01:55:11;;;;;;;10.27;3.05;;;13.80;99.90;;;;;;5082149;28;20036;-71
2022/06/20 01:57:40;;;;;;;8.52;2.80;;;13.80;99.90;;;;;;5097106;28;20046;-71
2022/06/20 02:00:14;;;;;;;10.55;3.03;;;13.80;99.90;;;;;;5095705;28;20762;-71
2022/06/20 02:02:53;;;;;;;8.55;2.90;;;13.80;99.90;;;;;;5100238;28;20038;-71
2022/06/20 02:05:23;;;;;;;10.73;2.60;;;13.80;99.90;;;;;;5079661;28;20062;-71
2022/06/20 02:07:49;;;;;;;8.95;2.78;;;13.80;99.90;;;;;;5096358;28;20123;-71
2022/06/20 02:10:20;;;;;;;9.35;2.72;;;13.80;99.90;;;;;;5094241;28;20138;-72
2022/06/20 02:12:47;;;;;;;10.18;2.40;;;13.90;99.90;;;;;;5105885;28;20047;-71
2022/06/20 02:15:21;;;;;;;12.57;2.70;;;13.90;99.90;;;;;;5072169;28;20454;-71
2022/06/20 02:17:49;;;;;;;9.23;2.55;;;13.90;99.90;;;;;;5091669;28;20040;-71
2022/06/20 02:20:19;;;;;;;8.10;2.35;;;13.90;99.90;;;;;;5076504;28;21805;-71
2022/06/20 02:22:48;;;;;;;9.35;2.85;;;14.00;99.90;;;;;;5088503;28;20051;-71
2022/06/20 02:25:17;;;;;;;10.60;3.17;;;13.90;99.90;;;;;;5106597;28;20084;-71
2022/06/20 02:27:50;;;;;;;12.68;2.78;;;13.90;99.90;;;;;;5105923;28;20058;-71
2022/06/20 02:30:16;;;;;;;8.15;2.80;;;13.90;99.90;;;;;;5095498;28;20079;-71
2022/06/20 02:32:46;;;;;;;8.27;2.80;;;13.90;99.90;;;;;;5102079;28;20062;-71
2022/06/20 02:35:17;;;;;;;8.50;2.60;;;13.90;99.90;;;;;;5098112;28;20043;-71
2022/06/20 02:37:45;;;;;;;8.13;2.75;;;13.90;99.90;;;;;;5086614;28;20169;-71
2022/06/20 02:40:19;;;;;;;10.88;2.75;;;13.90;99.90;;;;;;5069904;28;20048;-71
2022/06/20 02:43:11;;;;;;;9.20;3.20;;;13.90;99.90;;;;;;5073541;28;20085;-71
2022/06/20 02:45:38;;;;;;;7.38;2.75;;;13.90;99.90;;;;;;5098445;28;20131;-70
2022/06/20 02:48:05;;;;;;;;;;;13.90;99.90;;;;;;5077175;28;20086;-70
2022/06/20 02:50:36;;;;;;;10.27;3.00;;;13.90;99.90;;;;;;5094906;28;20173;-70
2022/06/20 02:53:14;;;;;;;6.80;2.85;;;13.90;99.90;;;;;;5083166;28;20438;-71
2022/06/20 02:55:39;;;;;;;11.63;3.70;;;13.90;99.90;;;;;;5099762;28;20491;-71
2022/06/20 02:58:18;;;;;;;9.23;3.15;;;13.90;99.90;;;;;;5082051;28;20043;-71
2022/06/20 03:01:02;;;;;;;12.82;3.33;;;13.90;99.90;;;;;;5082272;28;20048;-71
2022/06/20 03:03:40;;;;;;;10.35;3.22;;;13.90;99.90;;;;;;5109495;28;20051;-71
2022/06/20 03:06:12;;;;;;;10.35;3.45;;;13.90;99.90;;;;;;5084830;28;20040;-71
2022/06/20 03:08:38;;;;;;;9.80;3.35;;;13.90;99.90;;;;;;5102937;28;20047;-70
2022/06/20 03:11:05;;;;;;;9.55;3.33;;;13.90;99.90;;;;;;5109567;28;20171;-71
2022/06/20 03:13:32;;;;;;;9.95;3.58;;;13.90;99.90;;;;;;5103145;28;20062;-70
2022/06/20 03:16:01;;;;;;;9.55;3.17;;;14.00;99.90;;;;;;5083903;28;20040;-71
2022/06/20 03:18:27;;;;;;;8.27;3.10;;;14.00;99.90;;;;;;5081488;28;20051;-71
2022/06/20 03:20:54;;;;;;;10.38;3.53;;;14.00;99.90;;;;;;5099755;28;20071;-71
2022/06/20 03:23:28;;;;;;;11.23;3.30;;;14.00;99.90;;;;;;5082860;28;20554;-71
2022/06/20 03:25:56;;;;;;;10.55;2.88;;;14.00;99.90;;;;;;5085459;28;21060;-71
2022/06/20 03:28:23;;;;;;;9.68;3.00;;;13.90;99.90;;;;;;5104040;28;20043;-71
2022/06/20 03:30:50;;;;;;;8.02;2.78;;;14.00;99.90;;;;;;5104443;28;20134;-71
2022/06/20 03:33:16;;;;;;;7.43;2.88;;;14.00;99.90;;;;;;5104677;28;20418;-71
2022/06/20 03:36:06;;;;;;;10.63;3.47;;;13.90;99.90;;;;;;5087774;28;20043;-71
2022/06/20 03:38:34;;;;;;;12.32;3.33;;;13.90;99.90;;;;;;5102661;28;20092;-70
2022/06/20 03:41:03;;;;;;;9.90;3.47;;;13.80;99.90;;;;;;5103914;28;20233;-71
2022/06/20 03:43:29;;;;;;;10.38;3.10;;;13.80;99.90;;;;;;5102773;28;20048;-71
2022/06/20 03:46:01;;;;;;;8.93;3.08;;;13.80;99.90;;;;;;5080682;28;20047;-70
2022/06/20 03:48:42;;;;;;;10.05;3.25;;;13.80;99.90;;;;;;5082152;28;20498;-71
2022/06/20 03:51:20;;;;;;;10.40;2.97;;;13.80;99.90;;;;;;5077509;28;20107;-71
2022/06/20 03:54:04;;;;;;;12.38;3.47;;;13.70;99.90;;;;;;5086485;28;20067;-71
2022/06/20 03:56:45;;;;;;;13.60;3.58;;;13.70;99.90;;;;;;5083364;28;20040;-71
2022/06/20 03:59:27;;;;;;;9.57;3.28;;;13.70;99.90;;;;;;5098179;28;20039;-70
2022/06/20 04:02:27;;;;;;;10.77;3.08;;;13.70;99.90;;;;;;5081476;28;20043;-71
2022/06/20 04:05:18;;;;;;;8.95;3.22;;;13.70;99.90;;;;;;5079927;28;20058;-71
2022/06/20 04:07:51;;;;;;;9.15;2.92;;;13.70;99.90;;;;;;5079974;28;20123;-71
2022/06/20 04:10:59;;;;;;;8.55;3.30;;;13.70;99.90;;;;;;5080832;28;20044;-70
2022/06/20 04:13:42;;;;;;;9.80;3.05;;;13.70;99.90;;;;;;5078650;28;20526;-71
2022/06/20 04:16:41;;;;;;;9.05;3.05;;;13.70;99.90;;;;;;5098594;28;20220;-71
2022/06/20 04:19:24;;;;;;;11.93;3.63;;;13.80;99.90;;;;;;5083346;28;20449;-71
2022/06/20 04:21:55;;;;;;;10.23;3.40;;;13.80;99.90;;;;;;5080179;28;20051;-71
2022/06/20 04:24:40;;;;;;;8.43;3.10;;;13.80;99.90;;;;;;5081310;28;20099;-71
2022/06/20 04:27:27;;;;;;;9.05;3.25;;;13.70;99.90;;;;;;5106773;28;20043;-71
2022/06/20 04:30:01;;;;;;;8.65;3.45;;;13.70;99.90;;;;;;5101013;28;20044;-71
2022/06/20 04:32:52;;;;;;;9.13;3.40;;;13.70;99.90;;;;;;5098680;28;20059;-71
2022/06/20 04:35:32;;;;;;;8.05;3.25;;;13.70;99.90;;;;;;5080672;28;20392;-71
2022/06/20 04:38:06;;;;;;;11.23;3.67;;;13.70;99.90;;;;;;5082209;28;20047;-71
2022/06/20 04:40:48;;;;;;;6.10;2.75;;;13.70;99.90;;;;;;5097449;28;20036;-71
2022/06/20 04:43:39;;;;;;;8.60;3.20;;;13.80;99.90;;;;;;5083720;28;20494;-70
2022/06/20 04:46:20;;;;;;;8.25;3.08;;;13.80;99.90;;;;;;5097069;28;20687;-71
2022/06/20 04:48:49;;;;;;;9.98;3.17;;;13.90;99.90;;;;;;5081535;28;20491;-71
2022/06/20 04:51:27;;;;;;;10.27;3.75;;;13.90;99.90;;;;;;5106877;28;20036;-71
2022/06/20 04:53:53;;;;;;;10.63;3.40;;;14.00;99.90;;;;;;5078764;28;20127;-71
2022/06/20 04:56:26;;;;;;;13.32;3.88;;;14.10;99.90;;;;;;5078068;28;20118;-71
2022/06/20 04:58:58;;;;;;;12.23;4.15;;;14.10;99.90;;;;;;5100367;28;20125;-71
2022/06/20 05:01:25;;;;;;;10.80;3.78;;;14.20;99.90;;;;;;5096108;28;20043;-71
2022/06/20 05:03:56;;;;;;;12.05;3.63;;;14.20;99.90;;;;;;5080596;28;20547;-71
2022/06/20 05:06:29;;;;;;;10.55;3.75;;;14.30;99.90;;;;;;5080176;28;20066;-71
2022/06/20 05:09:14;;;;;;;10.48;3.50;;;14.40;99.90;;;;;;5079951;28;20055;-71
2022/06/20 05:11:45;;;;;;;10.23;3.28;;;14.40;99.90;;;;;;5102844;28;22182;-71
2022/06/20 05:14:37;;;;;;;9.30;3.28;;;14.40;99.90;;;;;;5089330;28;20564;-71
2022/06/20 05:17:09;;;;;;;9.73;3.10;;;14.50;99.90;;;;;;5105843;28;20538;-71
2022/06/20 05:19:41;;;;;;;9.63;3.28;;;14.50;99.90;;;;;;5079519;28;20778;-71
2022/06/20 05:22:15;;;;;;;9.07;3.17;;;14.40;99.90;;;;;;5098826;28;20054;-71
2022/06/20 05:24:44;;;;;;;9.60;3.00;;;14.50;99.90;;;;;;5081410;28;20437;-71
2022/06/20 05:27:33;;;;;;;7.95;3.17;;;14.50;99.90;;;;;;5097970;28;20043;-71
2022/06/20 05:30:00;;;;;;;10.05;3.38;;;14.50;99.90;;;;;;5098037;28;20051;-71
2022/06/20 05:32:49;;;;;;;10.00;3.03;;;14.60;99.90;;;;;;5076028;28;20141;-71
2022/06/20 05:35:23;;;;;;;12.88;3.25;;;14.60;99.90;;;;;;5078143;28;20044;-71
2022/06/20 05:38:18;;;;;;;10.18;3.28;;;14.60;99.90;;;;;;5080689;28;20158;-71
2022/06/20 05:40:48;;;;;;;9.73;3.15;;;14.70;99.90;;;;;;5065157;28;20048;-71
2022/06/20 05:43:21;;;;;;;10.15;3.05;;;14.70;99.90;;;;;;5078344;28;20070;-71
2022/06/20 05:45:53;;;;;;;10.23;3.10;;;14.80;99.90;;;;;;5073157;28;20044;-71
2022/06/20 05:48:24;;;;;;;15.20;3.72;;;14.80;99.90;;;;;;5068758;28;20076;-72
2022/06/20 05:50:58;;;;;;;12.82;3.80;;;14.90;99.90;;;;;;5067687;28;20406;-73
2022/06/20 05:53:38;;;;;;;12.30;3.55;;;15.00;99.90;;;;;;5072695;28;20087;-72
2022/06/20 05:56:14;;;;;;;12.88;3.13;;;15.10;99.90;;;;;;5073450;28;20963;-72
2022/06/20 05:58:43;;;;;;;10.95;3.40;;;15.10;99.90;;;;;;5076927;28;20040;-72
2022/06/20 06:01:18;;;;;;;7.22;3.10;;;15.20;99.90;;;;;;5079105;28;20036;-72
2022/06/20 06:03:52;;;;;;;10.60;3.10;;;15.20;99.90;;;;;;5069614;28;20119;-72
2022/06/20 06:06:23;;;;;;;12.23;3.85;;;15.20;99.90;;;;;;5072181;28;20053;-72
2022/06/20 06:09:11;;;;;;;9.70;3.47;;;15.20;99.90;;;;;;5071064;28;20066;-72
2022/06/20 06:11:51;;;;;;;12.15;3.55;;;15.20;99.90;;;;;;5072655;28;20028;-71
2022/06/20 06:14:50;;;;;;;11.68;3.50;;;15.30;99.90;;;;;;5073321;28;20059;-71
2022/06/20 06:17:26;;;;;;;8.63;3.15;;;15.30;99.90;;;;;;5070955;28;20407;-71
2022/06/20 06:20:00;;;;;;;10.60;3.28;;;15.30;99.90;;;;;;5071517;28;20055;-71
2022/06/20 06:22:32;;;;;;;10.77;3.38;;;15.30;99.90;;;;;;5070895;28;20044;-71
2022/06/20 06:25:17;;;;;;;12.55;4.07;;;15.40;99.90;;;;;;5066450;28;20530;-71
2022/06/20 06:27:45;;;;;;;10.13;3.03;;;15.40;99.90;;;;;;5069984;28;20052;-71
2022/06/20 06:30:25;;;;;;;8.30;2.83;;;15.40;99.90;;;;;;5073675;28;20107;-71
2022/06/20 06:33:23;;;;;;;9.88;3.20;;;15.50;99.90;;;;;;5098161;28;20059;-71
2022/06/20 06:36:21;;;;;;;9.23;3.10;;;15.60;99.90;;;;;;5064408;28;20105;-71
2022/06/20 06:38:58;;;;;;;9.75;2.78;;;15.70;99.90;;;;;;5051098;28;20044;-71
2022/06/20 06:41:27;;;;;;;;;;;15.70;99.90;;;;;;5071837;28;20470;-71
2022/06/20 06:43:55;;;;;;;9.57;3.10;;;15.70;99.90;;;;;;5081345;28;19927;-71
2022/06/20 06:46:29;;;;;;;12.60;3.10;;;15.80;99.90;;;;;;5074676;28;20475;-71
2022/06/20 06:49:28;;;;;;;10.38;3.38;;;15.80;99.90;;;;;;5082227;28;20127;-71
2022/06/20 06:52:22;;;;;;;8.63;3.03;;;15.70;99.90;;;;;;5070190;28;20181;-71
2022/06/20 06:54:58;;;;;;;9.45;3.15;;;15.80;99.90;;;;;;5080448;28;20670;-71
2022/06/20 06:57:32;;;;;;;10.20;3.53;;;15.80;99.90;;;;;;5091885;28;20048;-72
2022/06/20 07:00:04;;;;;;;7.43;2.95;;;15.90;99.90;;;;;;5080205;28;20490;-71
2022/06/20 07:02:39;;;;;;;8.93;3.13;;;15.80;99.90;;;;;;5075154;28;20058;-72
2022/06/20 07:05:12;;;;;;;10.52;3.85;;;15.80;99.90;;;;;;5073810;28;20131;-72
2022/06/20 07:07:46;;;;;;;10.50;3.45;;;15.80;99.90;;;;;;5070798;28;20044;-72
2022/06/20 07:10:28;;;;;;;9.60;3.42;;;15.80;99.90;;;;;;5072841;28;20036;-74
2022/06/20 07:13:02;;;;;;;9.00;3.25;;;15.80;99.90;;;;;;5072647;28;20097;-74
2022/06/20 07:15:29;;;;;;;11.98;3.30;;;16.00;99.90;;;;;;5075841;28;20036;-71
2022/06/20 07:17:59;;;;;;;8.23;3.15;;;16.10;99.90;;;;;;5097276;28;20244;-72
2022/06/20 07:20:35;;;;;;;8.85;3.80;;;16.30;99.90;;;;;;5098501;28;20035;-71
2022/06/20 07:23:09;;;;;;;13.20;4.22;;;16.30;99.90;;;;;;5096404;28;20717;-71
2022/06/20 07:25:40;;;;;;;12.02;3.65;;;16.40;99.90;;;;;;5076575;28;20051;-72
2022/06/20 07:28:24;;;;;;;7.82;3.38;;;16.40;99.90;;;;;;5106348;28;20093;-71
2022/06/20 07:30:55;;;;;;;10.73;3.45;;;16.30;99.90;;;;;;5078800;28;20055;-71
2022/06/20 07:33:42;;;;;;;8.73;3.30;;;16.30;99.90;;;;;;5095206;28;20124;-71
2022/06/20 07:36:09;;;;;;;;;;;16.40;99.90;;;;;;5100842;28;20486;-72
2022/06/20 07:38:50;;;;;;;;;;;16.50;99.90;;;;;;5078499;28;19924;-72
2022/06/20 07:41:34;;;;;;;9.85;3.53;;;16.50;99.90;;;;;;5099519;28;20023;-72
2022/06/20 07:44:23;;;;;;;12.38;3.92;;;16.50;99.90;;;;;;5076935;28;20043;-71
2022/06/20 07:47:08;;;;;;;9.02;2.78;;;16.70;99.90;;;;;;5111562;28;20406;-71
2022/06/20 07:49:46;;;;;;;7.28;3.25;;;16.80;99.90;;;;;;5106077;28;20043;-70
2022/06/20 07:52:23;;;;;;;10.02;3.30;;;17.00;99.90;;;;;;5071420;28;20128;-70
2022/06/20 07:54:56;;;;;;;9.27;3.13;;;17.10;99.90;;;;;;5072656;28;20051;-69
2022/06/20 07:57:51;;;;;;;10.73;3.58;;;17.20;99.90;;;;;;5093465;28;20544;-70
2022/06/20 08:00:20;;;;;;;8.05;3.10;;;17.20;99.90;;;;;;5094554;28;20492;-72
2022/06/20 08:03:07;;;;;;;6.97;2.50;;;17.20;99.90;;;;;;5079254;28;20051;-71
2022/06/20 08:05:37;;;;;;;7.05;2.72;;;17.30;99.90;;;;;;5110540;28;20051;-71
2022/06/20 08:08:13;;;;;;;6.70;2.75;;;17.40;99.90;;;;;;5079000;28;20078;-71
2022/06/20 08:10:52;;;;;;;8.38;3.00;;;17.30;99.90;;;;;;5089773;28;20622;-71
2022/06/20 08:13:37;;;;;;;7.90;2.97;;;17.30;99.90;;;;;;5077046;28;20039;-70
2022/06/20 08:16:17;;;;;;;7.55;3.05;;;17.30;99.90;;;;;;5079781;28;20047;-70
2022/06/20 08:18:43;;;;;;;12.93;3.30;;;17.50;99.90;;;;;;5101882;28;20038;-70
2022/06/20 08:21:27;;;;;;;11.68;3.00;;;17.50;99.90;;;;;;5075965;28;20398;-70
2022/06/20 08:24:00;;;;;;;7.38;2.90;;;17.60;99.90;;;;;;5096265;28;20044;-71
2022/06/20 08:26:32;;;;;;;8.50;3.30;;;17.70;99.90;;;;;;5097766;28;20043;-71
2022/06/20 08:29:11;;;;;;;6.85;2.90;;;17.60;99.90;;;;;;5099824;28;20039;-72
2022/06/20 08:31:43;;;;;;;9.82;3.10;;;17.50;99.90;;;;;;5085350;28;20054;-71
2022/06/20 08:34:24;;;;;;;11.75;2.75;;;17.40;99.90;;;;;;5086958;28;20108;-71
2022/06/20 08:36:55;;;;;;;8.88;2.70;;;17.40;99.90;;;;;;5097520;28;20055;-70
2022/06/20 08:39:24;;;;;;;8.32;3.17;;;17.50;99.90;;;;;;5107897;28;20048;-70
2022/06/20 08:41:58;;;;;;;9.77;3.20;;;17.50;99.90;;;;;;5109753;28;20047;-72
2022/06/20 08:45:00;;;;;;;8.98;2.95;;;17.60;99.90;;;;;;5092192;28;20055;-72
2022/06/20 08:48:21;;;;;;;8.60;3.10;;;17.80;99.90;;;;;;5090335;28;20070;-72
2022/06/20 08:51:01;;;;;;;9.15;3.17;;;17.90;99.90;;;;;;5080855;28;20483;-71
2022/06/20 08:54:03;;;;;;;10.23;2.97;;;18.00;99.90;;;;;;5094062;28;20035;-72
2022/06/20 08:56:49;;;;;;;7.93;2.75;;;18.20;99.90;;;;;;5102416;28;20079;-74
2022/06/20 08:59:17;;;;;;;13.40;3.28;;;18.30;99.90;;;;;;5091430;28;20531;-75
2022/06/20 09:01:48;;;;;;;9.45;2.88;;;18.20;99.90;;;;;;5091961;28;20059;-74
2022/06/20 09:04:28;;;;;;;8.82;3.10;;;18.10;99.90;;;;;;5083638;28;20043;-74
2022/06/20 09:07:17;;;;;;;12.38;3.60;;;18.00;99.90;;;;;;5064982;28;20135;-72
2022/06/20 09:09:55;;;;;;;14.10;3.50;;;17.80;99.90;;;;;;5093322;28;20802;-72
2022/06/20 09:13:08;;;;;;;9.15;3.05;;;17.80;99.90;;;;;;5086660;28;20043;-72
2022/06/20 09:15:42;;;;;;;10.20;3.33;;;17.80;99.90;;;;;;5029100;28;20041;-73
2022/06/20 09:18:13;;;;;;;8.40;2.40;;;18.00;99.90;;;;;;5063810;28;20540;-72
2022/06/20 09:20:52;;;;;;;7.88;2.63;;;18.20;99.90;;;;;;5099318;28;20067;-71
2022/06/20 09:23:42;;;;;;;9.80;2.78;;;18.40;99.90;;;;;;5084910;28;20126;-71
2022/06/20 09:26:22;;;;;;;8.15;2.50;;;18.50;99.90;;;;;;5084915;28;20044;-71
2022/06/20 09:29:04;;;;;;;9.85;2.58;;;18.60;99.90;;;;;;5109106;28;19962;-72
2022/06/20 09:31:51;;;;;;;8.23;2.63;;;18.60;99.90;;;;;;5109329;28;20127;-69
2022/06/20 09:34:28;;;;;;;10.07;2.60;;;18.60;99.90;;;;;;5079821;28;20055;-69
2022/06/20 09:37:33;;;;;;;8.65;2.85;;;18.60;99.90;;;;;;5089115;28;20391;-69
2022/06/20 09:40:04;;;;;;;6.82;2.30;;;18.70;99.90;;;;;;5094219;28;20044;-70
2022/06/20 09:42:45;;;;;;;10.20;2.53;;;18.80;99.90;;;;;;5070201;28;20040;-70
2022/06/20 09:45:14;;;;;;;9.63;2.40;;;19.00;98.20;;;;;;5098367;28;20039;-69
2022/06/20 09:47:40;;;;;;;6.82;1.88;;;19.20;99.40;;;;;;5093101;28;20053;-70
2022/06/20 09:50:24;;;;;;;6.72;1.90;;;19.20;97.40;;;;;;5105000;28;20043;-69
2022/06/20 09:53:18;;;;;;;9.45;2.42;;;19.10;95.00;;;;;;5070156;28;20052;-69
2022/06/20 09:56:16;;;;;;;7.65;2.60;;;18.90;97.80;;;;;;5088755;28;20047;-69
2022/06/20 09:58:45;;;;;;;8.68;2.45;;;18.70;99.20;;;;;;5088240;28;20726;-70
2022/06/20 10:01:28;;;;;;;8.63;2.30;;;18.40;99.90;;;;;;5070195;28;20035;-70
2022/06/20 10:04:21;;;;;;;7.75;2.08;;;18.30;99.90;;;;;;5078802;28;20044;-71
2022/06/20 10:07:06;;;;;;;5.43;1.70;;;18.40;97.90;;;;;;5080247;28;20131;-72
2022/06/20 10:10:05;;;;;;;6.80;1.65;;;18.60;94.90;;;;;;5077044;28;20390;-71
2022/06/20 10:12:49;;;;;;;5.05;1.55;;;18.80;97.20;;;;;;5081289;28;20044;-71
2022/06/20 10:15:24;;;;;;;5.82;1.38;;;18.80;97.20;;;;;;5078066;28;20479;-73
2022/06/20 10:18:29;;;;;;;3.85;1.50;;;19.00;95.40;;;;;;5091831;28;20055;-74
2022/06/20 10:21:06;;;;;;;4.35;1.40;;;19.00;95.90;;;;;;5096301;28;20044;-75
2022/06/20 10:23:50;;;;;;;6.10;1.65;;;18.90;95.40;;;;;;5087649;28;20092;-72
2022/06/20 10:26:49;;;;;;;5.70;1.88;;;18.90;94.40;;;;;;5077149;28;20078;-71
2022/06/20 10:30:02;;;;;;;5.18;1.60;;;18.80;94.80;;;;;;5076947;28;20047;-71
2022/06/20 10:32:53;;;;;;;5.45;1.80;;;18.70;96.30;;;;;;5083840;28;20082;-71
2022/06/20 10:35:38;;;;;;;4.00;1.80;;;18.60;97.60;;;;;;5074700;28;20059;-72
2022/06/20 10:38:21;;;;;;;6.43;1.67;;;18.60;97.20;;;;;;5089895;28;20135;-74
2022/06/20 10:41:07;;;;;;;4.97;1.90;;;18.60;96.70;;;;;;5071265;28;20050;-72
2022/06/20 10:44:08;;;;;;;6.47;2.05;;;18.60;98.60;;;;;;5093419;28;20525;-73
2022/06/20 10:46:33;;;;;;;5.78;1.58;;;18.50;98.90;;;;;;5084595;28;20142;-71
2022/06/20 10:49:08;;;;;;;6.10;2.28;;;18.60;98.40;;;;;;5082121;28;20130;-70
2022/06/20 10:51:56;;;;;;;4.85;1.80;;;18.60;98.00;;;;;;5101912;28;20036;-73
2022/06/20 10:54:42;;;;;;;6.00;1.92;;;18.70;97.10;;;;;;5070879;28;20043;-73
2022/06/20 10:57:29;;;;;;;3.42;1.67;;;18.70;96.10;;;;;;5089765;28;20038;-73
2022/06/20 11:00:03;;;;;;;;;;;19.00;98.90;;;;;;5073761;28;20052;-73
2022/06/20 11:02:48;;;;;;;6.78;2.08;;;19.10;98.20;;;;;;5073130;28;19931;-73
2022/06/20 11:05:18;;;;;;;6.95;2.05;;;19.30;97.30;;;;;;5068714;28;20104;-74
2022/06/20 11:08:24;;;;;;;5.60;1.67;;;19.50;97.80;;;;;;5076960;28;20040;-74
2022/06/20 11:11:20;;;;;;;4.75;1.70;;;19.70;95.80;;;;;;5096392;28;20047;-74
2022/06/20 11:13:52;;;;;;;;;;;19.80;96.80;;;;;;5100161;28;20040;-73
2022/06/20 11:16:27;;;;;;;8.68;1.75;;;19.80;91.20;;;;;;5098201;28;19919;-73
2022/06/20 11:18:52;;;;;;;5.80;1.85;;;19.90;93.20;;;;;;5086342;28;20064;-71
2022/06/20 11:21:38;;;;;;;6.80;1.60;;;20.10;93.40;;;;;;5098620;28;20075;-72
2022/06/20 11:24:30;;;;;;;6.75;1.63;;;20.20;91.70;;;;;;5028042;28;20043;-72
2022/06/20 11:27:19;;;;;;;4.95;1.80;;;20.10;87.00;;;;;;5075108;28;20079;-73
2022/06/20 11:30:00;;;;;;;8.40;2.08;;;19.90;91.20;;;;;;5078655;28;20501;-71
2022/06/20 11:32:46;;;;;;;6.93;1.90;;;19.70;92.00;;;;;;5097665;28;20055;-72
2022/06/20 11:35:26;;;;;;;5.80;1.80;;;19.50;95.90;;;;;;5098145;28;20056;-72
2022/06/20 11:38:11;;;;;;;5.95;1.73;;;19.60;90.20;;;;;;5098639;28;20161;-72
2022/06/20 11:41:10;;;;;;;5.05;1.40;;;19.80;90.80;;;;;;5082963;28;20059;-72
2022/06/20 11:43:50;;;;;;;5.70;1.75;;;20.00;85.30;;;;;;5079123;28;20059;-71
2022/06/20 11:46:44;;;;;;;6.10;1.70;;;20.10;90.40;;;;;;5094458;28;20043;-69
2022/06/20 11:49:09;;;;;;;4.13;1.65;;;20.20;87.40;;;;;;5095698;28;20063;-69
2022/06/20 11:51:57;;;;;;;5.75;1.80;;;20.20;92.40;;;;;;5094487;28;20074;-69
2022/06/20 11:54:41;;;;;;;6.43;2.17;;;20.30;91.60;;;;;;5091488;28;20088;-70
2022/06/20 11:57:30;;;;;;;5.22;1.55;;;20.40;90.90;;;;;;5081126;28;20048;-70
2022/06/20 12:00:03;;;;;;;5.30;1.80;;;20.50;89.20;;;;;;5072021;28;20036;-70
2022/06/20 12:03:21;;;;;;;5.53;1.83;;;20.70;84.50;;;;;;5090273;28;20105;-70
2022/06/20 12:06:19;;;;;;;6.45;2.10;;;20.60;83.90;;;;;;5051262;28;20079;-72
2022/06/20 12:09:05;;;;;;;3.95;1.50;;;20.50;80.20;;;;;;5098241;28;20039;-71
2022/06/20 12:11:58;;;;;;;4.20;1.35;;;20.40;81.60;;;;;;5078687;28;20044;-70
2022/06/20 12:14:40;;;;;;;6.70;1.77;;;20.20;72.80;;;;;;5091417;28;20050;-70
2022/06/20 12:17:21;;;;;;;6.28;1.77;;;20.10;71.10;;;;;;5081462;28;20039;-70
2022/06/20 12:26:11;;;;;;;3.67;1.58;;;19.70;89.80;;;;;;5077795;28;20052;-71
2022/06/20 12:28:40;;;;;;;5.28;1.80;;;19.60;93.60;;;;;;5074267;28;20080;-73
2022/06/20 12:31:11;;;;;;;6.80;1.80;;;19.60;93.40;;;;;;5092875;28;20078;-73
2022/06/20 12:33:50;;;;;;;7.13;1.98;;;19.80;92.60;;;;;;5103105;28;20052;-71
2022/06/20 12:36:38;;;;;;;6.50;2.03;;;19.70;90.20;;;;;;5109260;28;20051;-72
2022/06/20 12:39:18;;;;;;;8.75;1.90;;;19.60;92.30;;;;;;5095604;28;20043;-71
2022/06/20 12:41:54;;;;;;;6.97;2.10;;;19.50;92.10;;;;;;5109229;28;20036;-70
2022/06/20 12:44:35;;;;;;;5.15;1.63;;;19.50;85.30;;;;;;5078937;28;20058;-69
2022/06/20 12:47:10;;;;;;;5.03;1.80;;;19.40;90.10;;;;;;5075791;28;20096;-70
2022/06/20 12:49:59;;;;;;;8.07;2.45;;;19.40;85.20;;;;;;5099518;28;20051;-70
2022/06/20 12:52:39;;;;;;;7.20;1.80;;;19.50;90.50;;;;;;5083646;28;20042;-70
2022/06/20 12:55:25;;;;;;;6.15;2.15;;;19.80;92.60;;;;;;5090419;28;20046;-72
2022/06/20 12:58:18;;;;;;;7.13;2.00;;;19.90;88.10;;;;;;5077553;28;20044;-72
2022/06/20 13:00:58;;;;;;;7.53;2.20;;;20.00;90.70;;;;;;5095570;28;20044;-73
2022/06/20 13:03:24;;;;;;;10.43;2.40;;;19.80;92.40;;;;;;5079823;28;20127;-74
2022/06/20 13:06:19;;;;;;;7.50;2.50;;;19.70;93.30;;;;;;5102883;28;20467;-74
2022/06/20 13:09:08;;;;;;;6.40;2.13;;;19.60;94.40;;;;;;5079992;28;20837;-73
2022/06/20 13:11:49;;;;;;;11.30;2.42;;;19.50;96.50;;;;;;5095277;28;20479;-73
2022/06/20 13:14:51;;;;;;;5.68;1.80;;;19.70;92.00;;;;;;5099545;28;20390;-74
2022/06/20 13:17:26;;;;;;;7.88;1.95;;;19.80;93.20;;;;;;5104317;28;20036;-72
2022/06/20 13:19:55;;;;;;;8.18;2.28;;;20.00;86.50;;;;;;5099641;28;20036;-73
2022/06/20 13:22:44;;;;;;;5.38;1.90;;;20.20;87.00;;;;;;5076836;28;20072;-73
2022/06/20 13:25:29;;;;;;;7.63;2.13;;;20.30;72.00;;;;;;5098272;28;20031;-73
2022/06/20 13:28:01;;;;;;;8.85;2.10;;;20.20;75.50;;;;;;5094487;28;20047;-71
2022/06/20 13:30:59;;;;;;;5.47;2.03;;;20.10;80.30;;;;;;5098693;28;20118;-79
2022/06/20 13:33:43;;;;;;;7.63;2.08;;;20.10;86.30;;;;;;5070497;28;20860;-71
2022/06/20 13:36:33;;;;;;;8.63;2.42;;;20.10;90.10;;;;;;5091476;28;20044;-71
2022/06/20 13:39:20;;;;;;;7.80;2.25;;;20.00;92.20;;;;;;5097436;28;20462;-70
2022/06/20 13:41:53;;;;;;;4.25;2.08;;;19.80;93.00;;;;;;5093047;28;20036;-70
2022/06/20 13:44:57;;;;;;;7.63;2.50;;;19.70;94.70;;;;;;5090480;28;20051;-70
2022/06/20 13:47:31;;;;;;;4.30;1.90;;;19.80;94.00;;;;;;5100345;28;20135;-70
2022/06/20 13:50:23;;;;;;;6.65;2.03;;;19.70;95.10;;;;;;5093185;28;20445;-70